Metar Cercanos

 

LEPA - Palma De Mallorc, Spain
Distance from station: ONO 38km
Actualización: Wed, 25-May-2022 9:30am CEST
Parcialmente nuboso
Parcialmente nuboso
 Viento del ENE
Viento: ENE 30 km/h
Temperatura: 18°C
Rocío: 15°C
Humedad: 83%
Barómetro: 1013 hPa
Clouds: Parcialmente nuboso
Visibility: 10 km
Cloud details: Parcialmente nuboso 549 m
2022/05/25 07:30 LEPA 250730Z 06016KT 9999 SCT018 18/15 Q1013 NOSIG
LEMH - Mahon/Menorca Is, Spain
Distance from station: ENE 105km
Actualización: Wed, 25-May-2022 9:30am CEST
Lluvia débil, Showers, Few clouds
Lluvia débil, Showers, Few clouds
 Viento del N
Viento: N 37 km/h
Temperatura: 16°C
Rocío: 15°C
Humedad: 94%
Barómetro: 1013 hPa
Resumen: Lluvia débil, Showers
Clouds: Few Clouds
Visibility: 10 km
Cloud details: Parcialmente nuboso 244 m
Muy nuboso 305 m
Few Clouds 914 m
2022/05/25 07:30 LEMH 250730Z 01020KT 9999 -SHRA SCT008 BKN010 FEW030CB 16/15 Q1013
 
LEIB - Ibiza/Es Codola, Spain
Distance from station: OSO 165km
Actualización: Wed, 25-May-2022 9:30am CEST
Parcialmente nuboso
Parcialmente nuboso
 Viento del NNO
Viento: NNO 22 km/h
Temperatura: 19°C
Rocío: 12°C
Humedad: 64%
Barómetro: 1014 hPa
Clouds: Parcialmente nuboso
Visibility: 10 km
Cloud details: Parcialmente nuboso 823 m
2022/05/25 07:30 LEIB 250730Z 34012KT 300V010 9999 SCT027 19/12 Q1014 NOSIG
LEBL - Barcelona Airpor, Spain
Distance from station: NNO 225km
Actualización: Wed, 25-May-2022 9:30am CEST
Muy nuboso
Muy nuboso
 Viento del NO
Viento: NO 15 km/h
Temperatura: 16°C
Rocío: 11°C
Humedad: 72%
Barómetro: 1015 hPa
Clouds: Muy nuboso
Visibility: 10 km
Cloud details: Few Clouds 366 m
Muy nuboso 1951 m
2022/05/25 07:30 LEBL 250730Z 31008KT 280V350 9999 FEW012 BKN064 16/11 Q1015 NOSIG
 
LEVC - Valencia (civ/Mi, Spain
Distance from station: NO 188km
Actualización: Wed, 25-May-2022 9:30am CEST
Few Clouds
Few Clouds
 Viento del NNO
Viento: NNO 15 km/h
Temperatura: 19°C
Rocío: 8°C
Humedad: 49%
Barómetro: 1016 hPa
Clouds: Few Clouds
Visibility: 10 km
Cloud details: Few Clouds 1219 m
2022/05/25 07:30 LEVC 250730Z 33008KT 9999 FEW040 19/08 Q1016 NOSIG
LEGE - Gerona/Costa Bra, Spain
Distance from station: N 276km
Actualización: Wed, 25-May-2022 9:30am CEST
Muy nuboso
Muy nuboso
 Viento del N
Viento: N 13 km/h
Temperatura: 14°C
Rocío: 12°C
Humedad: 88%
Barómetro: 1014 hPa
Clouds: Muy nuboso
Visibility: 10 km
Cloud details: Muy nuboso 1524 m
2022/05/25 07:30 LEGE 250730Z 01007KT 340V050 9999 BKN050 14/12 Q1014
 
LEAL - Alicante/El Alte, Spain
Distance from station: OSO 344km
Actualización: Wed, 25-May-2022 9:30am CEST
Few Clouds
Few Clouds
 Viento del NNO
Viento: NNO 20 km/h
Temperatura: 19°C
Rocío: 6°C
Humedad: 43%
Barómetro: 1016 hPa
Clouds: Few Clouds
Visibility: 10 km
Cloud details: Few Clouds 427 m
2022/05/25 07:30 LEAL 250730Z 34011KT 290V010 9999 FEW014 19/06 Q1016 NOSIG
LEAM - Almeria Airport, Spain
Distance from station: SSO 56km
Actualización: Wed, 25-May-2022 9:30am CEST
Few Clouds
Few Clouds
 Viento del E
Viento: E 20 km/h
Temperatura: 22°C
Rocío: 16°C
Humedad: 69%
Barómetro: 1015 hPa
Clouds: Few Clouds
Visibility: 10 km
Cloud details: Few Clouds 457 m
2022/05/25 07:30 LEAM 250730Z 08011KT 9999 FEW015 22/16 Q1015
 
LEZG - Zaragoza (mil/Ci, Spain
Distance from station: NO 431km
Actualización: Wed, 25-May-2022 9:30am CEST
Few Clouds
Few Clouds
 Viento del ONO
Viento: ONO 44 km/h, Racha: 63 km/h
Temperatura: 16°C
Rocío: 8°C
Humedad: 59%
Barómetro: 1018 hPa
Clouds: Few Clouds
Visibility: 10 km
Cloud details: Few Clouds 2134 m
2022/05/25 07:30 LEZG 250730Z 30024G34KT 9999 FEW070 16/08 Q1018
LEMD - Madrid/Barajas, Spain
Distance from station: ONO 234km
Actualización: Wed, 25-May-2022 9:30am CEST
Despejado
Despejado
 Viento del N
Viento: N 22 km/h
Temperatura: 14°C
Rocío: 2°C
Humedad: 44%
Barómetro: 1020 hPa
Resumen: Despejado
Visibility: greater than 10 km
2022/05/25 07:30 LEMD 250730Z 36012KT 330V060 CAVOK 14/02 Q1020 NOSIG
 
LEGR - Granada Airport, Spain
Distance from station: OSO 62km
Actualización: Wed, 25-May-2022 9:30am CEST
Despejado
Despejado
 Viento del N
Viento: N 13 km/h
Temperatura: 18°C
Rocío: 1°C
Humedad: 32%
Barómetro: 1017 hPa
Resumen: Despejado
Visibility: greater than 10 km
2022/05/25 07:30 LEGR 250730Z 01007KT 330V030 CAVOK 18/01 Q1017
LEMG - Malaga (civ/Mil), Spain
Distance from station: OSO 227km
Actualización: Wed, 25-May-2022 9:30am CEST
Despejado
Despejado
 Viento del O
Viento: O 22 km/h
Temperatura: 22°C
Rocío: 4°C
Humedad: 31%
Barómetro: 1015 hPa
Resumen: Despejado
Visibility: greater than 10 km
2022/05/25 07:30 LEMG 250730Z 28012KT CAVOK 22/04 Q1015 NOSIG
 
LEZL - Sevilla (civ/Mil, Spain
Distance from station: S 318km
Actualización: Wed, 25-May-2022 9:30am CEST
Despejado
Despejado
 Viento del NE
Viento: NE 17 km/h
Temperatura: 20°C
Rocío: 4°C
Humedad: 35%
Barómetro: 1018 hPa
Resumen: Despejado
Visibility: greater than 10 km
2022/05/25 07:30 LEZL 250730Z 04009KT CAVOK 20/04 Q1018 NOSIG
LEVT - Vitoria, Spain
Distance from station: NO 226km
Actualización: Wed, 25-May-2022 9:30am CEST
Muy nuboso
Muy nuboso
 Viento del varies
Viento: varies 2 km/h
Temperatura: 11°C
Rocío: 9°C
Humedad: 88%
Barómetro: 1023 hPa
Clouds: Muy nuboso
Visibility: 10 km
Cloud details: Few Clouds 427 m
Muy nuboso 792 m
Muy nuboso 1494 m
2022/05/25 07:30 LEVT 250730Z VRB01KT 9999 FEW014 BKN026 BKN049 11/09 Q1023
 
LEBB - Bilbao/Sondica, Spain
Distance from station: NNO 235km
Actualización: Wed, 25-May-2022 9:30am CEST
Muy nuboso
Muy nuboso
 Viento del ONO
Viento: ONO 11 km/h
Temperatura: 14°C
Rocío: 13°C
Humedad: 94%
Barómetro: 1023 hPa
Clouds: Muy nuboso
Visibility: 10 km
Cloud details: Few Clouds 457 m
Few Clouds 914 m
Muy nuboso 2073 m
2022/05/25 07:30 LEBB 250730Z 29006KT 260V320 9999 FEW015 FEW030TCU BKN068 14/13 Q1023 NOSIG
LESO - San Sebastian/Fu, Spain
Distance from station: N 231km
Actualización: Wed, 25-May-2022 9:30am CEST
Muy nuboso
Muy nuboso
 Viento del NNO
Viento: NNO 9 km/h
Temperatura: 17°C
Rocío: 11°C
Humedad: 68%
Barómetro: 1022 hPa
Clouds: Muy nuboso
Visibility: 10 km
Cloud details: Parcialmente nuboso 853 m
Muy nuboso 1890 m
2022/05/25 07:30 LESO 250730Z 34005KT 290V060 9999 SCT028 BKN062 17/11 Q1022
 
LEVD - Valladolid(Mil/C, Spain
Distance from station: ONO 239km
Actualización: Wed, 25-May-2022 9:30am CEST
Few Clouds
Few Clouds
 Viento del N
Viento: N 4 km/h
Temperatura: 10°C
Rocío: 5°C
Humedad: 71%
Barómetro: 1023 hPa
Clouds: Few Clouds
Visibility: 10 km
Cloud details: Few Clouds 610 m
2022/05/25 07:30 LEVD 250730Z 35002KT 9999 FEW020 10/05 Q1023
LESA - Salamanca (civ/M, Spain
Distance from station: ONO 349km
Actualización: Wed, 25-May-2022 9:30am CEST
Despejado
Despejado
 Viento del ESE
Viento: ESE 9 km/h
Temperatura: 12°C
Rocío: 5°C
Humedad: 63%
Barómetro: 1023 hPa
Resumen: Despejado
Visibility: greater than 10 km
2022/05/25 07:30 LESA 250730Z 11005KT 060V150 CAVOK 12/05 Q1023
 
LEXJ - Santander/Paraya, Spain
Distance from station: NNO 247km
Actualización: Wed, 25-May-2022 9:30am CEST
Parcialmente nuboso
Parcialmente nuboso
 Viento del OSO
Viento: OSO 9 km/h
Temperatura: 14°C
Rocío: 12°C
Humedad: 88%
Barómetro: 1024 hPa
Clouds: Parcialmente nuboso
Visibility: 10 km
Cloud details: Parcialmente nuboso 762 m
Parcialmente nuboso 1676 m
2022/05/25 07:30 LEXJ 250730Z 25005KT 220V280 9999 SCT025 SCT055 14/12 Q1024
LEAS - Asturias/Aviles, Spain
Distance from station: NO 214km
Actualización: Wed, 25-May-2022 9:30am CEST
Few Clouds
Few Clouds
 Viento del SO
Viento: SO 11 km/h
Temperatura: 13°C
Rocío: 11°C
Humedad: 88%
Barómetro: 1024 hPa
Clouds: Few Clouds
Visibility: 10 km
Cloud details: Few Clouds 975 m
2022/05/25 07:30 LEAS 250730Z 23006KT 9999 FEW032 13/11 Q1024 NOSIG
 
LECO - La Coruna/Alvedr, Spain
Distance from station: ONO 222km
Actualización: Wed, 25-May-2022 9:30am CEST
Few Clouds
Few Clouds
 Viento del SE
Viento: SE 6 km/h
Temperatura: 13°C
Rocío: 12°C
Humedad: 94%
Barómetro: 1025 hPa
Clouds: Few Clouds
Visibility: 10 km
Cloud details: Few Clouds 579 m
2022/05/25 07:30 LECO 250730Z 14003KT 080V160 9999 FEW019 13/12 Q1025 NOSIG
LEVX - Vigo/Peinador, Spain
Distance from station: O 214km
Actualización: Wed, 25-May-2022 9:30am CEST
Despejado
Despejado
 Viento del varies
Viento: varies 7 km/h
Temperatura: 14°C
Rocío: 9°C
Humedad: 72%
Barómetro: 1024 hPa
Resumen: Despejado
Visibility: greater than 10 km
2022/05/25 07:30 LEVX 250730Z VRB04KT CAVOK 14/09 Q1024 NOSIG